Time;durP1;ratioP1;P1;durP2;ratioP2;P2;SDS_P1;SDS_P2;PMS_P1;PMS_P2;Temp;Humidity;BMP_temperature;BMP_pressure;BME280_temperature;BME280_humidity;BME280_pressure;Samples;Min_cycle;Max_cycle;Signal;HPM_P1;HPM_P2
2021/05/08 00:01:33;;;;;;;0.00;0.00;;;;;;;;;;5076730;28;20333;-60
2021/05/08 00:03:59;;;;;;;0.00;0.00;;;;;;;;;;5077203;28;20184;-61
2021/05/08 00:06:26;;;;;;;0.00;0.00;;;;;;;;;;5070442;28;20386;-61
2021/05/08 00:08:53;;;;;;;1.70;0.53;;;;;;;;;;5072557;28;20182;-61
2021/05/08 00:11:20;;;;;;;0.00;0.00;;;;;;;;;;5075793;28;20526;-61
2021/05/08 00:13:46;;;;;;;0.00;0.00;;;;;;;;;;5073080;28;20182;-60
2021/05/08 00:16:13;;;;;;;0.00;0.00;;;;;;;;;;5070174;28;20190;-61
2021/05/08 00:18:40;;;;;;;0.00;0.00;;;;;;;;;;5069648;28;20194;-61
2021/05/08 00:21:06;;;;;;;0.10;0.10;;;;;;;;;;5069728;28;20178;-60
2021/05/08 00:23:33;;;;;;;0.10;0.07;;;;;;;;;;5069833;28;20186;-61
2021/05/08 00:26:00;;;;;;;0.00;0.00;;;;;;;;;;5079274;28;20182;-62
2021/05/08 00:28:26;;;;;;;0.00;0.00;;;;;;;;;;5077633;28;20186;-61
2021/05/08 00:30:53;;;;;;;0.30;0.20;;;;;;;;;;5075855;28;20183;-61
2021/05/08 00:33:19;;;;;;;0.00;0.00;;;;;;;;;;5073264;28;20192;-62
2021/05/08 00:35:46;;;;;;;0.10;0.10;;;;;;;;;;5071712;28;20586;-62
2021/05/08 00:38:13;;;;;;;0.00;0.00;;;;;;;;;;5072974;28;20186;-62
2021/05/08 00:40:39;;;;;;;0.10;0.10;;;;;;;;;;5075553;28;20204;-62
2021/05/08 00:43:07;;;;;;;0.00;0.00;;;;;;;;;;5075113;28;20178;-61
2021/05/08 00:45:35;;;;;;;0.00;0.00;;;;;;;;;;5069710;28;20909;-61
2021/05/08 00:48:07;;;;;;;0.00;0.00;;;;;;;;;;5068858;28;20183;-61
2021/05/08 00:50:34;;;;;;;0.00;0.00;;;;;;;;;;5066579;28;20251;-61
2021/05/08 00:53:01;;;;;;;2.63;0.90;;;;;;;;;;5073850;28;20255;-61
2021/05/08 00:55:28;;;;;;;0.00;0.00;;;;;;;;;;5077529;28;20212;-62
2021/05/08 00:57:55;;;;;;;2.73;1.30;;;;;;;;;;5073834;28;20285;-61
2021/05/08 01:00:22;;;;;;;0.73;0.20;;;;;;;;;;5073504;28;20648;-61
2021/05/08 01:02:49;;;;;;;0.00;0.00;;;;;;;;;;5074161;28;20228;-61
2021/05/08 01:05:16;;;;;;;0.00;0.00;;;;;;;;;;5074860;28;20305;-61
2021/05/08 01:07:45;;;;;;;0.00;0.00;;;;;;;;;;5072134;28;20878;-61
2021/05/08 01:10:15;;;;;;;0.10;0.10;;;;;;;;;;5069178;28;20690;-61
2021/05/08 01:12:43;;;;;;;0.00;0.00;;;;;;;;;;5073571;28;20179;-63
2021/05/08 01:15:11;;;;;;;0.00;0.00;;;;;;;;;;5075074;28;20183;-62
2021/05/08 01:17:42;;;;;;;0.20;0.20;;;;;;;;;;5079241;28;20190;-62
2021/05/08 01:20:15;;;;;;;0.20;0.20;;;;;;;;;;5077711;28;20764;-62
2021/05/08 01:22:42;;;;;;;0.00;0.00;;;;;;;;;;5077739;28;20987;-63
2021/05/08 01:25:12;;;;;;;0.00;0.00;;;;;;;;;;5076144;28;20694;-62
2021/05/08 01:27:55;;;;;;;0.00;0.00;;;;;;;;;;5078036;28;20648;-62
2021/05/08 01:30:25;;;;;;;0.60;0.23;;;;;;;;;;5074363;28;20209;-62
2021/05/08 01:32:53;;;;;;;0.10;0.10;;;;;;;;;;5062976;28;20941;-61
2021/05/08 01:35:19;;;;;;;8.97;0.77;;;;;;;;;;5066619;28;20692;-65
2021/05/08 01:37:46;;;;;;;0.00;0.00;;;;;;;;;;5069858;28;20260;-64
2021/05/08 01:40:14;;;;;;;0.00;0.00;;;;;;;;;;5076118;28;20210;-64
2021/05/08 01:42:41;;;;;;;0.00;0.00;;;;;;;;;;5087568;28;20302;-64
2021/05/08 01:45:15;;;;;;;0.00;0.00;;;;;;;;;;5071913;28;20190;-64
2021/05/08 01:47:42;;;;;;;0.10;0.10;;;;;;;;;;5072688;28;20803;-64
2021/05/08 01:50:10;;;;;;;0.10;0.10;;;;;;;;;;5066212;28;20561;-64
2021/05/08 01:52:36;;;;;;;0.40;0.40;;;;;;;;;;5074053;28;21397;-64
2021/05/08 01:55:08;;;;;;;0.10;0.10;;;;;;;;;;5071864;28;20187;-65
2021/05/08 01:57:44;;;;;;;0.20;0.20;;;;;;;;;;5073332;28;20208;-64
2021/05/08 02:00:14;;;;;;;0.00;0.00;;;;;;;;;;5071394;28;20194;-64
2021/05/08 02:02:43;;;;;;;0.00;0.00;;;;;;;;;;5068113;28;20184;-64
2021/05/08 02:05:10;;;;;;;0.00;0.00;;;;;;;;;;5070210;28;20182;-64
2021/05/08 02:07:37;;;;;;;0.10;0.10;;;;;;;;;;5078837;28;20218;-62
2021/05/08 02:10:07;;;;;;;0.20;0.20;;;;;;;;;;5078236;28;20198;-64
2021/05/08 02:12:37;;;;;;;0.20;0.20;;;;;;;;;;5075945;28;20195;-64
2021/05/08 02:15:05;;;;;;;0.10;0.10;;;;;;;;;;5074437;28;20778;-64
2021/05/08 02:17:31;;;;;;;0.00;0.00;;;;;;;;;;5071611;28;20174;-65
2021/05/08 02:19:58;;;;;;;0.43;0.43;;;;;;;;;;5073205;28;20325;-63
2021/05/08 02:22:25;;;;;;;0.00;0.00;;;;;;;;;;5083486;28;20221;-62
2021/05/08 02:24:52;;;;;;;0.40;0.27;;;;;;;;;;5071104;28;20235;-62
2021/05/08 02:27:19;;;;;;;0.03;0.03;;;;;;;;;;5089193;28;20195;-62
2021/05/08 02:29:45;;;;;;;0.10;0.10;;;;;;;;;;5082107;28;20194;-62
2021/05/08 02:32:12;;;;;;;0.03;0.03;;;;;;;;;;5079689;28;20194;-62
2021/05/08 02:34:39;;;;;;;0.67;0.67;;;;;;;;;;5083406;28;20190;-63
2021/05/08 02:37:06;;;;;;;1.07;1.07;;;;;;;;;;5080640;28;20225;-62
2021/05/08 02:39:32;;;;;;;0.33;0.33;;;;;;;;;;5080160;28;20709;-62
2021/05/08 02:42:00;;;;;;;0.10;0.10;;;;;;;;;;5085545;28;20189;-62
2021/05/08 02:44:27;;;;;;;0.10;0.10;;;;;;;;;;5078440;28;20195;-62
2021/05/08 02:46:54;;;;;;;0.10;0.10;;;;;;;;;;5073923;28;20186;-63
2021/05/08 02:49:21;;;;;;;0.10;0.10;;;;;;;;;;5069938;28;20251;-62
2021/05/08 02:51:47;;;;;;;0.07;0.07;;;;;;;;;;5077306;28;20194;-62
2021/05/08 02:54:14;;;;;;;0.00;0.00;;;;;;;;;;5089029;28;20196;-62
2021/05/08 02:56:40;;;;;;;0.10;0.10;;;;;;;;;;5077717;28;20188;-62
2021/05/08 02:59:07;;;;;;;0.00;0.00;;;;;;;;;;5077865;28;20267;-62
2021/05/08 03:01:33;;;;;;;0.20;0.20;;;;;;;;;;5076819;28;20182;-62
2021/05/08 03:04:00;;;;;;;0.00;0.00;;;;;;;;;;5075537;28;20197;-62
2021/05/08 03:06:26;;;;;;;0.10;0.10;;;;;;;;;;5074114;28;20189;-62
2021/05/08 03:08:54;;;;;;;0.10;0.10;;;;;;;;;;5067117;28;20751;-62
2021/05/08 03:11:20;;;;;;;1.50;0.33;;;;;;;;;;5081909;28;20183;-62
2021/05/08 03:13:47;;;;;;;0.10;0.10;;;;;;;;;;5076372;28;20186;-62
2021/05/08 03:16:14;;;;;;;0.57;0.47;;;;;;;;;;5079265;28;20183;-62
2021/05/08 03:18:40;;;;;;;0.30;0.20;;;;;;;;;;5083204;28;20323;-61
2021/05/08 03:21:07;;;;;;;0.13;0.13;;;;;;;;;;5076126;28;20213;-61
2021/05/08 03:23:33;;;;;;;0.07;0.07;;;;;;;;;;5074805;28;20281;-62
2021/05/08 03:26:00;;;;;;;0.00;0.00;;;;;;;;;;5068262;28;21034;-61
2021/05/08 03:28:26;;;;;;;0.10;0.10;;;;;;;;;;5067894;28;20213;-61
2021/05/08 03:30:53;;;;;;;0.20;0.20;;;;;;;;;;5074534;28;20244;-61
2021/05/08 03:33:20;;;;;;;0.10;0.10;;;;;;;;;;5068410;28;21039;-62
2021/05/08 03:35:46;;;;;;;1.67;0.37;;;;;;;;;;5072809;28;20249;-63
2021/05/08 03:38:13;;;;;;;1.50;0.50;;;;;;;;;;5072567;28;20193;-62
2021/05/08 03:40:40;;;;;;;0.10;0.10;;;;;;;;;;5067094;28;20197;-62
2021/05/08 03:43:06;;;;;;;0.67;0.67;;;;;;;;;;5076180;28;20235;-62
2021/05/08 03:45:33;;;;;;;2.60;1.33;;;;;;;;;;5083688;28;20182;-62
2021/05/08 03:48:00;;;;;;;0.10;0.10;;;;;;;;;;5077428;28;20185;-63
2021/05/08 03:50:27;;;;;;;0.20;0.20;;;;;;;;;;5053716;28;20212;-62
2021/05/08 03:52:54;;;;;;;0.43;0.37;;;;;;;;;;5080230;28;20258;-62
2021/05/08 03:55:20;;;;;;;1.03;0.67;;;;;;;;;;5078254;28;20189;-62
2021/05/08 03:57:47;;;;;;;0.00;0.00;;;;;;;;;;5076142;28;20559;-62
2021/05/08 04:00:19;;;;;;;3.80;0.73;;;;;;;;;;5069441;28;20396;-62
2021/05/08 04:02:46;;;;;;;0.13;0.13;;;;;;;;;;5064942;28;20197;-61
2021/05/08 04:05:13;;;;;;;0.00;0.00;;;;;;;;;;5070228;28;20213;-62
2021/05/08 04:07:39;;;;;;;0.40;0.30;;;;;;;;;;5069177;28;20176;-62
2021/05/08 04:10:06;;;;;;;0.10;0.10;;;;;;;;;;5072976;28;20585;-62
2021/05/08 04:12:33;;;;;;;0.00;0.00;;;;;;;;;;5067840;28;20179;-62
2021/05/08 04:14:59;;;;;;;0.00;0.00;;;;;;;;;;5070963;28;20245;-62
2021/05/08 04:17:26;;;;;;;0.10;0.10;;;;;;;;;;5075114;28;20658;-62
2021/05/08 04:19:52;;;;;;;0.00;0.00;;;;;;;;;;5078277;28;20217;-62
2021/05/08 04:22:19;;;;;;;0.00;0.00;;;;;;;;;;5074953;28;20741;-62
2021/05/08 04:24:46;;;;;;;0.10;0.10;;;;;;;;;;5072979;28;20182;-62
2021/05/08 04:27:12;;;;;;;0.10;0.10;;;;;;;;;;5068463;28;20487;-61
2021/05/08 04:29:39;;;;;;;1.70;0.77;;;;;;;;;;5076495;28;20189;-62
2021/05/08 04:32:06;;;;;;;0.23;0.23;;;;;;;;;;5077988;28;20197;-61
2021/05/08 04:34:32;;;;;;;0.00;0.00;;;;;;;;;;5077757;28;20443;-62
2021/05/08 04:36:59;;;;;;;0.10;0.10;;;;;;;;;;5066606;28;20954;-62
2021/05/08 04:39:25;;;;;;;0.43;0.10;;;;;;;;;;5072388;28;20209;-62
2021/05/08 04:41:52;;;;;;;0.00;0.00;;;;;;;;;;5066765;28;20182;-62
2021/05/08 04:44:19;;;;;;;0.07;0.07;;;;;;;;;;5071298;28;20257;-62
2021/05/08 04:46:48;;;;;;;0.00;0.00;;;;;;;;;;5068621;28;20218;-62
2021/05/08 04:49:15;;;;;;;0.30;0.30;;;;;;;;;;5069259;28;20177;-62
2021/05/08 04:51:42;;;;;;;0.00;0.00;;;;;;;;;;5069373;28;20190;-62
2021/05/08 04:54:09;;;;;;;0.50;0.50;;;;;;;;;;5070385;28;20267;-62
2021/05/08 04:56:36;;;;;;;0.10;0.10;;;;;;;;;;5070574;28;20557;-62
2021/05/08 04:59:03;;;;;;;0.10;0.10;;;;;;;;;;5071878;28;20230;-63
2021/05/08 05:01:31;;;;;;;0.00;0.00;;;;;;;;;;5071446;28;20774;-62
2021/05/08 05:03:58;;;;;;;0.07;0.07;;;;;;;;;;5061478;28;21190;-62
2021/05/08 05:06:24;;;;;;;0.30;0.30;;;;;;;;;;5065537;28;20305;-63
2021/05/08 05:08:51;;;;;;;0.33;0.17;;;;;;;;;;5071430;28;20182;-63
2021/05/08 05:11:19;;;;;;;0.00;0.00;;;;;;;;;;5068842;28;20200;-62
2021/05/08 05:13:46;;;;;;;0.10;0.10;;;;;;;;;;5071631;28;20194;-62
2021/05/08 05:16:12;;;;;;;0.20;0.20;;;;;;;;;;5063385;28;20193;-63
2021/05/08 05:18:39;;;;;;;2.30;0.53;;;;;;;;;;5068303;28;20179;-62
2021/05/08 05:21:05;;;;;;;0.00;0.00;;;;;;;;;;5075707;28;20241;-62
2021/05/08 05:23:32;;;;;;;0.10;0.10;;;;;;;;;;5075770;28;20174;-62
2021/05/08 05:25:59;;;;;;;0.00;0.00;;;;;;;;;;5068243;28;20193;-62
2021/05/08 05:28:26;;;;;;;0.07;0.07;;;;;;;;;;5072024;28;20349;-63
2021/05/08 05:30:53;;;;;;;1.93;1.03;;;;;;;;;;5071846;28;20186;-62
2021/05/08 05:33:20;;;;;;;0.00;0.00;;;;;;;;;;5068058;28;20198;-62
2021/05/08 05:35:56;;;;;;;0.00;0.00;;;;;;;;;;5066769;28;20186;-62
2021/05/08 05:38:23;;;;;;;0.10;0.10;;;;;;;;;;5064224;28;20217;-62
2021/05/08 05:40:52;;;;;;;0.10;0.10;;;;;;;;;;5074052;28;20197;-62
2021/05/08 05:43:19;;;;;;;0.10;0.10;;;;;;;;;;5071931;28;20859;-62
2021/05/08 05:45:45;;;;;;;0.10;0.10;;;;;;;;;;5079077;28;20406;-62
2021/05/08 05:48:12;;;;;;;0.50;0.50;;;;;;;;;;5078153;28;20231;-62
2021/05/08 05:50:39;;;;;;;0.20;0.20;;;;;;;;;;5075873;28;20198;-62
2021/05/08 05:53:06;;;;;;;2.53;2.03;;;;;;;;;;5081270;28;20214;-62
2021/05/08 05:55:33;;;;;;;0.10;0.10;;;;;;;;;;5075022;28;20198;-62
2021/05/08 05:57:59;;;;;;;0.00;0.00;;;;;;;;;;5077970;28;20194;-62
2021/05/08 06:00:26;;;;;;;0.00;0.00;;;;;;;;;;5070530;28;20260;-62
2021/05/08 06:02:53;;;;;;;0.30;0.10;;;;;;;;;;5075435;28;20589;-63
2021/05/08 06:05:20;;;;;;;0.20;0.20;;;;;;;;;;5079463;28;20197;-62
2021/05/08 06:07:46;;;;;;;0.50;0.50;;;;;;;;;;5073824;28;20186;-62
2021/05/08 06:10:13;;;;;;;0.03;0.03;;;;;;;;;;5071684;28;20300;-62
2021/05/08 06:12:40;;;;;;;0.10;0.10;;;;;;;;;;5076784;28;20185;-63
2021/05/08 06:15:07;;;;;;;0.00;0.00;;;;;;;;;;5078418;28;20692;-63
2021/05/08 06:17:34;;;;;;;0.00;0.00;;;;;;;;;;5075723;28;20630;-62
2021/05/08 06:20:01;;;;;;;5.87;0.47;;;;;;;;;;5079523;28;20795;-62
2021/05/08 06:22:27;;;;;;;0.10;0.10;;;;;;;;;;5079578;28;20339;-62
2021/05/08 06:24:54;;;;;;;0.00;0.00;;;;;;;;;;5078202;28;20182;-62
2021/05/08 06:27:22;;;;;;;0.23;0.23;;;;;;;;;;5073327;28;20251;-62
2021/05/08 06:29:49;;;;;;;11.40;1.17;;;;;;;;;;5082448;27;20332;-62
2021/05/08 06:32:15;;;;;;;0.00;0.00;;;;;;;;;;5067854;28;20665;-61
2021/05/08 06:34:42;;;;;;;0.77;0.33;;;;;;;;;;5078222;28;20695;-62
2021/05/08 06:37:08;;;;;;;1.40;1.40;;;;;;;;;;5074987;28;20281;-62
2021/05/08 06:39:35;;;;;;;0.10;0.10;;;;;;;;;;5071915;28;20325;-62
2021/05/08 06:42:03;;;;;;;0.00;0.00;;;;;;;;;;5066697;28;20183;-62
2021/05/08 06:44:30;;;;;;;1.63;1.53;;;;;;;;;;5074869;28;20193;-62
2021/05/08 06:46:57;;;;;;;0.10;0.10;;;;;;;;;;5075756;28;20194;-62
2021/05/08 06:49:24;;;;;;;0.30;0.30;;;;;;;;;;5070701;28;20193;-62
2021/05/08 06:51:50;;;;;;;0.00;0.00;;;;;;;;;;5065214;28;20265;-62
2021/05/08 06:54:17;;;;;;;0.00;0.00;;;;;;;;;;5070658;28;20184;-63
2021/05/08 06:56:44;;;;;;;0.07;0.07;;;;;;;;;;5079134;28;20182;-63
2021/05/08 06:59:11;;;;;;;0.10;0.10;;;;;;;;;;5077007;28;20229;-63
2021/05/08 07:01:38;;;;;;;0.53;0.53;;;;;;;;;;5079166;28;20190;-63
2021/05/08 07:04:04;;;;;;;0.10;0.10;;;;;;;;;;5075992;28;20265;-63
2021/05/08 07:06:31;;;;;;;0.00;0.00;;;;;;;;;;5076767;28;20273;-63
2021/05/08 07:08:57;;;;;;;0.30;0.30;;;;;;;;;;5078808;28;20955;-63
2021/05/08 07:11:25;;;;;;;0.10;0.10;;;;;;;;;;5071673;28;20197;-62
2021/05/08 07:13:52;;;;;;;0.40;0.40;;;;;;;;;;5076863;28;20322;-62
2021/05/08 07:16:18;;;;;;;0.10;0.10;;;;;;;;;;5076339;28;20709;-63
2021/05/08 07:18:45;;;;;;;0.20;0.20;;;;;;;;;;5075312;28;20189;-63
2021/05/08 07:21:12;;;;;;;2.00;0.37;;;;;;;;;;5077368;28;20289;-63
2021/05/08 07:23:38;;;;;;;0.77;0.20;;;;;;;;;;5079995;28;20185;-63
2021/05/08 07:26:05;;;;;;;0.27;0.20;;;;;;;;;;5078411;28;20208;-62
2021/05/08 07:28:31;;;;;;;0.40;0.40;;;;;;;;;;5077389;28;20233;-62
2021/05/08 07:30:59;;;;;;;0.10;0.10;;;;;;;;;;5082549;28;20188;-62
2021/05/08 07:33:25;;;;;;;0.20;0.20;;;;;;;;;;5069968;28;20213;-63
2021/05/08 07:35:52;;;;;;;0.10;0.10;;;;;;;;;;5071216;28;20190;-62
2021/05/08 07:38:19;;;;;;;0.40;0.40;;;;;;;;;;5075139;28;20185;-62
2021/05/08 07:40:49;;;;;;;0.10;0.10;;;;;;;;;;5081271;28;20230;-63
2021/05/08 07:43:17;;;;;;;0.00;0.00;;;;;;;;;;5073172;28;20190;-62
2021/05/08 07:45:43;;;;;;;0.10;0.10;;;;;;;;;;5073986;28;20193;-61
2021/05/08 07:48:10;;;;;;;0.83;0.30;;;;;;;;;;5070669;28;22134;-61
2021/05/08 07:50:37;;;;;;;0.00;0.00;;;;;;;;;;5071542;28;20293;-61
2021/05/08 07:53:04;;;;;;;0.03;0.03;;;;;;;;;;5078226;28;20678;-62
2021/05/08 07:55:30;;;;;;;0.00;0.00;;;;;;;;;;5067979;28;20190;-62
2021/05/08 07:57:57;;;;;;;0.00;0.00;;;;;;;;;;5075732;28;20193;-62
2021/05/08 08:00:24;;;;;;;0.30;0.30;;;;;;;;;;5076257;28;20202;-62
2021/05/08 08:02:51;;;;;;;0.03;0.03;;;;;;;;;;5071981;28;20257;-62
2021/05/08 08:05:17;;;;;;;0.57;0.50;;;;;;;;;;5077311;28;20228;-62
2021/05/08 08:07:44;;;;;;;0.10;0.10;;;;;;;;;;5071842;28;20551;-62
2021/05/08 08:10:11;;;;;;;0.20;0.20;;;;;;;;;;5074624;28;20192;-62
2021/05/08 08:12:41;;;;;;;0.13;0.10;;;;;;;;;;5076320;28;20192;-62
2021/05/08 08:15:09;;;;;;;0.00;0.00;;;;;;;;;;5074851;28;20186;-63
2021/05/08 08:17:36;;;;;;;0.00;0.00;;;;;;;;;;5072710;28;21053;-63
2021/05/08 08:20:06;;;;;;;0.17;0.17;;;;;;;;;;5074937;28;20199;-63
2021/05/08 08:22:36;;;;;;;0.10;0.10;;;;;;;;;;5082429;28;20647;-63
2021/05/08 08:25:03;;;;;;;0.20;0.20;;;;;;;;;;5077483;28;20262;-63
2021/05/08 08:27:30;;;;;;;0.00;0.00;;;;;;;;;;5076300;28;20185;-62
2021/05/08 08:29:56;;;;;;;0.47;0.07;;;;;;;;;;5079098;28;20647;-62
2021/05/08 12:45:24;;;;;;;0.37;0.37;;;;;;;;;;5055348;28;20653;-63
2021/05/08 12:47:51;;;;;;;0.00;0.00;;;;;;;;;;5031194;28;20184;-63
2021/05/08 12:50:26;;;;;;;14.53;0.77;;;;;;;;;;5031659;28;20179;-63
2021/05/08 12:52:59;;;;;;;0.50;0.50;;;;;;;;;;5027029;28;20181;-62
2021/05/08 12:55:29;;;;;;;1.70;1.23;;;;;;;;;;5036915;28;20177;-62
2021/05/08 12:58:06;;;;;;;5.00;1.47;;;;;;;;;;5035965;28;20198;-63
2021/05/08 13:00:44;;;;;;;0.77;0.63;;;;;;;;;;5022368;28;20191;-62
2021/05/08 13:06:06;;;;;;;2.33;0.77;;;;;;;;;;5023316;28;20673;-62
2021/05/08 13:08:47;;;;;;;0.33;0.33;;;;;;;;;;5034142;28;21107;-62
2021/05/08 13:11:32;;;;;;;4.83;2.30;;;;;;;;;;5041930;28;20202;-62
2021/05/08 13:14:17;;;;;;;0.17;0.17;;;;;;;;;;5023625;28;20211;-62
2021/05/08 13:16:44;;;;;;;0.10;0.10;;;;;;;;;;5021539;28;20187;-65
2021/05/08 13:19:11;;;;;;;1.73;0.40;;;;;;;;;;5025887;28;20202;-63
2021/05/08 13:21:37;;;;;;;1.10;0.27;;;;;;;;;;5025790;28;20179;-63
2021/05/08 13:24:06;;;;;;;0.37;0.37;;;;;;;;;;5035305;28;20225;-65
2021/05/08 13:26:33;;;;;;;1.93;0.57;;;;;;;;;;5029105;28;20179;-64
2021/05/08 13:29:00;;;;;;;0.30;0.30;;;;;;;;;;5017009;28;20254;-62
2021/05/08 13:31:27;;;;;;;0.27;0.17;;;;;;;;;;5015119;28;21015;-62
2021/05/08 13:33:53;;;;;;;1.03;0.50;;;;;;;;;;5029875;28;20180;-64
2021/05/08 13:36:21;;;;;;;0.57;0.57;;;;;;;;;;5037502;28;20191;-63
2021/05/08 13:38:48;;;;;;;0.13;0.13;;;;;;;;;;5033075;28;20243;-66
2021/05/08 13:41:15;;;;;;;3.10;1.03;;;;;;;;;;5038029;28;20576;-65
2021/05/08 13:43:42;;;;;;;0.00;0.00;;;;;;;;;;5032796;28;20341;-64
2021/05/08 13:46:09;;;;;;;0.00;0.00;;;;;;;;;;5030120;28;20179;-65
2021/05/08 13:48:37;;;;;;;1.20;0.00;;;;;;;;;;5032896;28;20177;-63
2021/05/08 13:51:04;;;;;;;4.10;0.67;;;;;;;;;;5029700;28;20191;-63
2021/05/08 13:53:31;;;;;;;0.20;0.20;;;;;;;;;;5035914;28;20256;-64
2021/05/08 13:55:58;;;;;;;3.40;0.63;;;;;;;;;;5022503;28;20184;-63
2021/05/08 13:58:25;;;;;;;0.50;0.37;;;;;;;;;;5016969;28;20800;-62
2021/05/08 14:00:51;;;;;;;0.77;0.77;;;;;;;;;;5015979;28;20186;-62
2021/05/08 14:03:18;;;;;;;2.60;0.93;;;;;;;;;;5019579;28;20215;-62
2021/05/08 14:05:45;;;;;;;2.40;0.30;;;;;;;;;;5019897;28;20183;-61
2021/05/08 14:08:12;;;;;;;4.23;0.70;;;;;;;;;;5020832;28;20199;-61
2021/05/08 14:10:38;;;;;;;7.40;0.97;;;;;;;;;;5018032;28;20190;-62
2021/05/08 14:13:05;;;;;;;0.30;0.30;;;;;;;;;;5017568;28;20180;-62
2021/05/08 14:15:32;;;;;;;0.10;0.10;;;;;;;;;;5018233;28;20229;-62
2021/05/08 14:17:58;;;;;;;3.10;1.20;;;;;;;;;;5018858;28;20718;-61
2021/05/08 14:20:26;;;;;;;2.50;0.30;;;;;;;;;;5014016;28;20184;-65
2021/05/08 14:22:53;;;;;;;0.40;0.40;;;;;;;;;;5017527;28;20189;-62
2021/05/08 14:25:19;;;;;;;0.70;0.20;;;;;;;;;;5015115;28;20203;-62
2021/05/08 14:27:46;;;;;;;0.23;0.23;;;;;;;;;;5019744;28;20187;-62
2021/05/08 14:30:13;;;;;;;0.30;0.20;;;;;;;;;;5015171;28;20181;-62
2021/05/08 14:32:40;;;;;;;1.80;0.20;;;;;;;;;;5016998;28;20176;-61
2021/05/08 14:35:08;;;;;;;1.43;0.80;;;;;;;;;;5014759;28;20190;-62
2021/05/08 14:37:34;;;;;;;0.40;0.40;;;;;;;;;;5014250;28;20278;-65
2021/05/08 14:40:01;;;;;;;0.00;0.00;;;;;;;;;;5017086;28;21061;-65
2021/05/08 14:42:27;;;;;;;0.00;0.00;;;;;;;;;;5015861;28;20884;-62
2021/05/08 14:44:54;;;;;;;1.40;0.30;;;;;;;;;;5018081;28;20775;-62
2021/05/08 14:47:21;;;;;;;0.00;0.00;;;;;;;;;;5020213;28;20240;-62
2021/05/08 14:49:48;;;;;;;0.10;0.10;;;;;;;;;;5015741;28;20174;-61
2021/05/08 14:52:15;;;;;;;0.03;0.03;;;;;;;;;;5020003;28;20907;-62
2021/05/08 14:54:41;;;;;;;0.00;0.00;;;;;;;;;;5016818;28;20260;-62
2021/05/08 14:57:08;;;;;;;0.00;0.00;;;;;;;;;;5018374;28;20746;-62
2021/05/08 14:59:35;;;;;;;0.00;0.00;;;;;;;;;;5016519;28;20196;-62
2021/05/08 15:02:01;;;;;;;0.27;0.23;;;;;;;;;;5031022;28;20294;-62
2021/05/08 15:04:28;;;;;;;0.10;0.10;;;;;;;;;;5017679;28;20221;-61
2021/05/08 15:06:55;;;;;;;0.20;0.20;;;;;;;;;;5011771;28;21102;-62
2021/05/08 15:09:27;;;;;;;6.43;6.03;;;;;;;;;;5015140;28;21109;-61
2021/05/08 15:11:54;;;;;;;1.17;0.30;;;;;;;;;;5016168;28;20192;-63
2021/05/08 15:14:21;;;;;;;0.00;0.00;;;;;;;;;;5017221;28;21159;-61
2021/05/08 15:16:47;;;;;;;2.27;0.57;;;;;;;;;;5018964;28;20724;-61
2021/05/08 15:19:15;;;;;;;0.00;0.00;;;;;;;;;;5018159;28;20190;-62
2021/05/08 15:21:42;;;;;;;0.00;0.00;;;;;;;;;;5012925;28;20187;-61
2021/05/08 15:24:09;;;;;;;2.77;1.53;;;;;;;;;;5012529;28;20752;-61
2021/05/08 15:26:36;;;;;;;0.17;0.17;;;;;;;;;;5011881;28;20181;-61
2021/05/08 15:29:03;;;;;;;0.20;0.20;;;;;;;;;;5015626;28;20605;-61
2021/05/08 15:31:30;;;;;;;2.83;2.30;;;;;;;;;;5016879;28;20176;-61
2021/05/08 15:33:57;;;;;;;1.17;0.23;;;;;;;;;;5018730;28;20260;-62
2021/05/08 15:36:24;;;;;;;3.50;0.77;;;;;;;;;;5007230;28;20201;-62
2021/05/08 15:38:51;;;;;;;0.00;0.00;;;;;;;;;;4999893;28;20293;-62
2021/05/08 15:41:20;;;;;;;0.20;0.20;;;;;;;;;;5007703;28;20382;-62
2021/05/08 15:43:48;;;;;;;0.00;0.00;;;;;;;;;;5004315;28;20263;-62
2021/05/08 15:46:16;;;;;;;0.10;0.10;;;;;;;;;;5014845;28;20190;-62
2021/05/08 15:48:43;;;;;;;0.10;0.10;;;;;;;;;;5002336;28;20187;-62
2021/05/08 15:51:13;;;;;;;0.00;0.00;;;;;;;;;;5004168;28;20187;-61
2021/05/08 15:53:40;;;;;;;0.10;0.10;;;;;;;;;;5009580;28;20192;-62
2021/05/08 15:56:08;;;;;;;2.57;0.63;;;;;;;;;;5003638;28;20936;-62
2021/05/08 15:58:37;;;;;;;0.00;0.00;;;;;;;;;;5008585;28;20191;-62
2021/05/08 16:01:04;;;;;;;0.00;0.00;;;;;;;;;;5007548;28;20830;-62
2021/05/08 16:03:31;;;;;;;0.00;0.00;;;;;;;;;;5011453;28;20306;-62
2021/05/08 16:05:57;;;;;;;0.10;0.10;;;;;;;;;;5015990;28;20175;-61
2021/05/08 16:08:24;;;;;;;0.07;0.07;;;;;;;;;;5010283;28;20179;-61
2021/05/08 16:10:51;;;;;;;0.23;0.20;;;;;;;;;;5011005;28;20172;-61
2021/05/08 16:13:18;;;;;;;1.13;0.60;;;;;;;;;;5012284;28;20176;-61
2021/05/08 16:15:44;;;;;;;0.00;0.00;;;;;;;;;;5009995;28;20179;-61
2021/05/08 16:18:11;;;;;;;0.10;0.10;;;;;;;;;;5011017;28;20922;-61
2021/05/08 16:20:38;;;;;;;2.03;0.27;;;;;;;;;;5014389;28;20204;-61
2021/05/08 16:23:04;;;;;;;35.67;8.93;;;;;;;;;;5004328;28;20751;-60
2021/05/08 16:25:31;;;;;;;0.20;0.10;;;;;;;;;;5013441;28;20199;-61
2021/05/08 16:27:58;;;;;;;0.43;0.43;;;;;;;;;;5013444;28;20187;-61
2021/05/08 16:30:24;;;;;;;1.20;0.47;;;;;;;;;;5013105;28;20178;-62
2021/05/08 16:32:51;;;;;;;0.00;0.00;;;;;;;;;;5008157;28;21006;-62
2021/05/08 16:35:18;;;;;;;1.60;0.67;;;;;;;;;;5006403;28;21038;-61
2021/05/08 16:37:45;;;;;;;5.73;0.63;;;;;;;;;;5013046;28;20275;-61
2021/05/08 16:40:12;;;;;;;0.20;0.20;;;;;;;;;;5012089;28;20269;-65
2021/05/08 16:42:42;;;;;;;8.10;3.10;;;;;;;;;;5008558;28;20193;-65
2021/05/08 16:45:09;;;;;;;2.43;0.73;;;;;;;;;;5010793;28;20786;-61
2021/05/08 16:47:37;;;;;;;0.00;0.00;;;;;;;;;;5022239;28;20752;-62
2021/05/08 16:50:08;;;;;;;0.10;0.10;;;;;;;;;;5003703;28;20192;-62
2021/05/08 16:52:35;;;;;;;0.03;0.03;;;;;;;;;;5005100;28;20638;-62
2021/05/08 16:55:02;;;;;;;0.93;0.77;;;;;;;;;;5006699;28;20242;-62
2021/05/08 16:57:28;;;;;;;4.67;0.43;;;;;;;;;;5009606;28;20303;-62
2021/05/08 16:59:55;;;;;;;0.57;0.23;;;;;;;;;;5000888;28;20195;-62
2021/05/08 17:02:22;;;;;;;0.10;0.07;;;;;;;;;;5004555;28;20193;-63
2021/05/08 17:04:48;;;;;;;0.30;0.20;;;;;;;;;;4999237;28;21001;-62
2021/05/08 17:07:15;;;;;;;3.10;0.60;;;;;;;;;;5012744;28;20184;-62
2021/05/08 17:09:42;;;;;;;0.50;0.40;;;;;;;;;;5012599;28;20180;-62
2021/05/08 17:12:09;;;;;;;6.90;0.60;;;;;;;;;;5010782;28;20188;-62
2021/05/08 17:14:36;;;;;;;2.90;2.53;;;;;;;;;;4999616;28;20224;-61
2021/05/08 17:17:03;;;;;;;0.00;0.00;;;;;;;;;;5006109;28;20198;-62
2021/05/08 17:19:30;;;;;;;0.10;0.10;;;;;;;;;;5012973;28;20433;-62
2021/05/08 17:21:57;;;;;;;0.20;0.20;;;;;;;;;;5006599;28;20200;-62
2021/05/08 17:24:24;;;;;;;2.43;1.10;;;;;;;;;;4998839;28;20733;-62
2021/05/08 17:26:51;;;;;;;0.50;0.30;;;;;;;;;;5005625;28;20185;-62
2021/05/08 17:29:17;;;;;;;0.43;0.40;;;;;;;;;;4998920;28;20567;-62
2021/05/08 17:31:44;;;;;;;3.03;1.07;;;;;;;;;;5002536;28;20189;-62
2021/05/08 17:34:11;;;;;;;2.63;0.97;;;;;;;;;;5022705;28;20402;-62
2021/05/08 17:36:37;;;;;;;0.10;0.00;;;;;;;;;;5015033;28;20200;-62
2021/05/08 17:39:07;;;;;;;0.30;0.30;;;;;;;;;;5002581;28;20195;-62
2021/05/08 17:41:34;;;;;;;0.87;0.30;;;;;;;;;;5004370;28;20215;-62
2021/05/08 17:44:00;;;;;;;0.53;0.53;;;;;;;;;;5005925;28;20240;-62
2021/05/08 17:46:27;;;;;;;0.00;0.00;;;;;;;;;;5012650;28;20564;-62
2021/05/08 17:48:54;;;;;;;0.73;0.37;;;;;;;;;;5015053;28;20208;-62
2021/05/08 17:51:20;;;;;;;0.10;0.10;;;;;;;;;;5002051;28;20914;-62
2021/05/08 17:53:47;;;;;;;1.47;0.50;;;;;;;;;;5002075;28;20741;-62
2021/05/08 17:56:14;;;;;;;0.93;0.63;;;;;;;;;;5011605;28;20189;-62
2021/05/08 17:58:41;;;;;;;0.53;0.20;;;;;;;;;;5021618;28;20901;-63
2021/05/08 18:01:08;;;;;;;3.53;0.40;;;;;;;;;;5009137;28;20188;-64
2021/05/08 18:03:34;;;;;;;0.50;0.33;;;;;;;;;;5010791;28;20219;-64
2021/05/08 18:06:01;;;;;;;0.00;0.00;;;;;;;;;;5015961;28;20283;-62
2021/05/08 18:08:27;;;;;;;0.00;0.00;;;;;;;;;;5001798;28;20282;-62
2021/05/08 18:10:54;;;;;;;0.37;0.37;;;;;;;;;;5015308;28;20185;-62
2021/05/08 18:13:21;;;;;;;0.20;0.10;;;;;;;;;;5001974;28;20184;-62
2021/05/08 18:15:47;;;;;;;0.00;0.00;;;;;;;;;;5008612;28;20642;-62
2021/05/08 18:18:23;;;;;;;0.77;0.43;;;;;;;;;;5000309;28;20834;-62
2021/05/08 18:20:51;;;;;;;0.07;0.07;;;;;;;;;;5003069;28;20262;-62
2021/05/08 18:23:18;;;;;;;0.40;0.20;;;;;;;;;;5020951;28;20192;-61
2021/05/08 18:25:44;;;;;;;0.10;0.10;;;;;;;;;;5007598;28;20279;-62
2021/05/08 18:28:12;;;;;;;2.73;0.83;;;;;;;;;;5001475;28;20184;-62
2021/05/08 18:30:41;;;;;;;0.00;0.00;;;;;;;;;;5001537;28;20275;-62
2021/05/08 18:33:07;;;;;;;0.03;0.03;;;;;;;;;;5001884;28;20189;-61
2021/05/08 18:35:35;;;;;;;3.63;0.57;;;;;;;;;;5015486;28;20281;-61
2021/05/08 18:38:01;;;;;;;0.37;0.27;;;;;;;;;;5015604;28;20289;-62
2021/05/08 18:40:29;;;;;;;0.17;0.17;;;;;;;;;;5012451;28;20183;-62
2021/05/08 18:42:56;;;;;;;0.77;0.30;;;;;;;;;;5016489;28;20191;-64
2021/05/08 18:45:23;;;;;;;1.20;1.20;;;;;;;;;;5018412;28;20210;-64
2021/05/08 18:47:49;;;;;;;3.07;2.87;;;;;;;;;;5014898;28;20680;-64
2021/05/08 18:50:16;;;;;;;0.10;0.10;;;;;;;;;;5010393;28;20199;-61
2021/05/08 18:52:43;;;;;;;0.90;0.90;;;;;;;;;;5006376;28;20189;-62
2021/05/08 18:55:10;;;;;;;0.30;0.30;;;;;;;;;;5023989;28;20215;-61
2021/05/08 18:57:37;;;;;;;1.90;0.87;;;;;;;;;;5017477;28;20953;-61
2021/05/08 19:00:04;;;;;;;0.13;0.13;;;;;;;;;;5011094;28;20187;-61